sensor_id;sensor_type;location;lat;lon;timestamp;pressure;altitude;pressure_sealevel;temperature;humidity
69574;BME280;62840;52.366;5.980;2023-01-23T00:02:00;103508.91;;;2.59;75.08
69574;BME280;62840;52.366;5.980;2023-01-23T00:04:25;103509.81;;;2.58;75.21
69574;BME280;62840;52.366;5.980;2023-01-23T00:06:51;103521.22;;;2.57;75.22
69574;BME280;62840;52.366;5.980;2023-01-23T00:09:17;103522.13;;;2.56;75.18
69574;BME280;62840;52.366;5.980;2023-01-23T00:11:43;103522.13;;;2.56;75.16
69574;BME280;62840;52.366;5.980;2023-01-23T00:14:11;103518.63;;;2.54;75.40
69574;BME280;62840;52.366;5.980;2023-01-23T00:16:37;103521.25;;;2.52;75.26
69574;BME280;62840;52.366;5.980;2023-01-23T00:19:02;103522.13;;;2.53;75.50
69574;BME280;62840;52.366;5.980;2023-01-23T00:21:29;103517.75;;;2.52;75.38
69574;BME280;62840;52.366;5.980;2023-01-23T00:23:57;103515.09;;;2.52;75.29
69574;BME280;62840;52.366;5.980;2023-01-23T00:26:25;103523.88;;;2.51;75.26
69574;BME280;62840;52.366;5.980;2023-01-23T00:28:53;103527.41;;;2.50;75.28
69574;BME280;62840;52.366;5.980;2023-01-23T00:31:23;103520.38;;;2.49;75.34
69574;BME280;62840;52.366;5.980;2023-01-23T00:33:52;103518.59;;;2.51;75.55
69574;BME280;62840;52.366;5.980;2023-01-23T00:36:19;103528.28;;;2.52;75.43
69574;BME280;62840;52.366;5.980;2023-01-23T00:38:45;103523.88;;;2.51;75.47
69574;BME280;62840;52.366;5.980;2023-01-23T00:41:11;103524.75;;;2.53;75.47
69574;BME280;62840;52.366;5.980;2023-01-23T00:43:37;103522.13;;;2.53;75.52
69574;BME280;62840;52.366;5.980;2023-01-23T00:46:03;103527.38;;;2.53;75.36
69574;BME280;62840;52.366;5.980;2023-01-23T00:48:32;103509.84;;;2.52;75.55
69574;BME280;62840;52.366;5.980;2023-01-23T00:50:58;103516.84;;;2.56;75.28
69574;BME280;62840;52.366;5.980;2023-01-23T00:53:23;103508.06;;;2.54;75.34
69574;BME280;62840;52.366;5.980;2023-01-23T00:55:49;103514.22;;;2.54;75.59
69574;BME280;62840;52.366;5.980;2023-01-23T00:58:15;103511.56;;;2.53;75.39
69574;BME280;62840;52.366;5.980;2023-01-23T01:00:41;103521.25;;;2.51;75.72
69574;BME280;62840;52.366;5.980;2023-01-23T01:03:07;103521.25;;;2.51;75.64
69574;BME280;62840;52.366;5.980;2023-01-23T01:05:36;103527.38;;;2.53;75.75
69574;BME280;62840;52.366;5.980;2023-01-23T01:08:02;103522.13;;;2.53;75.63
69574;BME280;62840;52.366;5.980;2023-01-23T01:10:28;103513.34;;;2.54;75.60
69574;BME280;62840;52.366;5.980;2023-01-23T01:12:54;103504.53;;;2.55;75.76
69574;BME280;62840;52.366;5.980;2023-01-23T01:15:20;103511.56;;;2.56;75.55
69574;BME280;62840;52.366;5.980;2023-01-23T01:17:47;103514.19;;;2.58;75.57
69574;BME280;62840;52.366;5.980;2023-01-23T01:20:13;103510.69;;;2.57;75.45
69574;BME280;62840;52.366;5.980;2023-01-23T01:22:41;103515.09;;;2.58;75.76
69574;BME280;62840;52.366;5.980;2023-01-23T01:25:08;103518.59;;;2.59;75.68
69574;BME280;62840;52.366;5.980;2023-01-23T01:27:34;103523.81;;;2.60;75.51
69574;BME280;62840;52.366;5.980;2023-01-23T01:30:00;103518.56;;;2.60;75.49
69574;BME280;62840;52.366;5.980;2023-01-23T01:32:25;103515.06;;;2.60;75.69
69574;BME280;62840;52.366;5.980;2023-01-23T01:34:51;103518.56;;;2.60;75.72
69574;BME280;62840;52.366;5.980;2023-01-23T01:37:17;103518.59;;;2.59;75.48
69574;BME280;62840;52.366;5.980;2023-01-23T01:39:46;103511.53;;;2.59;75.70
69574;BME280;62840;52.366;5.980;2023-01-23T01:42:11;103520.31;;;2.60;75.71
69574;BME280;62840;52.366;5.980;2023-01-23T01:44:52;103520.31;;;2.61;75.49
69574;BME280;62840;52.366;5.980;2023-01-23T01:47:19;103524.69;;;2.62;75.64
69574;BME280;62840;52.366;5.980;2023-01-23T01:49:45;103524.72;;;2.61;75.50
69574;BME280;62840;52.366;5.980;2023-01-23T01:52:12;103530.84;;;2.61;75.60
69574;BME280;62840;52.366;5.980;2023-01-23T01:54:41;103532.59;;;2.62;75.50
69574;BME280;62840;52.366;5.980;2023-01-23T01:57:17;103533.50;;;2.61;75.45
69574;BME280;62840;52.366;5.980;2023-01-23T01:59:48;103527.31;;;2.62;75.59
69574;BME280;62840;52.366;5.980;2023-01-23T02:02:21;103527.31;;;2.64;75.69
69574;BME280;62840;52.366;5.980;2023-01-23T02:04:57;103522.91;;;2.64;75.41
69574;BME280;62840;52.366;5.980;2023-01-23T02:07:36;103524.66;;;2.68;75.62
69574;BME280;62840;52.366;5.980;2023-01-23T02:10:08;103522.03;;;2.68;75.60
69574;BME280;62840;52.366;5.980;2023-01-23T02:12:37;103529.06;;;2.69;75.50
69574;BME280;62840;52.366;5.980;2023-01-23T02:15:05;103539.59;;;2.69;75.57
69574;BME280;62840;52.366;5.980;2023-01-23T02:17:32;103536.06;;;2.69;75.67
69574;BME280;62840;52.366;5.980;2023-01-23T02:20:07;103543.09;;;2.68;75.55
69574;BME280;62840;52.366;5.980;2023-01-23T02:22:48;103539.59;;;2.66;75.62
69574;BME280;62840;52.366;5.980;2023-01-23T02:25:29;103536.97;;;2.66;75.61
69574;BME280;62840;52.366;5.980;2023-01-23T02:28:05;103541.38;;;2.67;75.64
69574;BME280;62840;52.366;5.980;2023-01-23T02:30:32;103540.47;;;2.67;75.52
69574;BME280;62840;52.366;5.980;2023-01-23T02:33:06;103537.88;;;2.65;75.82
69574;BME280;62840;52.366;5.980;2023-01-23T02:35:33;103543.09;;;2.68;75.82
69574;BME280;62840;52.366;5.980;2023-01-23T02:38:02;103546.59;;;2.70;75.66
69574;BME280;62840;52.366;5.980;2023-01-23T02:40:31;103540.47;;;2.67;75.67
69574;BME280;62840;52.366;5.980;2023-01-23T02:42:59;103551.00;;;2.70;75.53
69574;BME280;62840;52.366;5.980;2023-01-23T02:45:27;103548.34;;;2.71;75.71
69574;BME280;62840;52.366;5.980;2023-01-23T02:47:53;103556.25;;;2.71;75.51
69574;BME280;62840;52.366;5.980;2023-01-23T02:50:19;103550.09;;;2.72;75.71
69574;BME280;62840;52.366;5.980;2023-01-23T02:52:45;103554.47;;;2.73;75.72
69574;BME280;62840;52.366;5.980;2023-01-23T02:55:10;103551.84;;;2.73;75.59
69574;BME280;62840;52.366;5.980;2023-01-23T02:57:36;103559.75;;;2.75;75.72
69574;BME280;62840;52.366;5.980;2023-01-23T03:00:02;103558.88;;;2.74;75.61
69574;BME280;62840;52.366;5.980;2023-01-23T03:02:31;103546.56;;;2.73;75.69
69574;BME280;62840;52.366;5.980;2023-01-23T03:04:57;103558.88;;;2.74;75.46
69574;BME280;62840;52.366;5.980;2023-01-23T03:07:23;103564.16;;;2.74;75.50
69574;BME280;62840;52.366;5.980;2023-01-23T03:09:49;103558.88;;;2.74;75.75
69574;BME280;62840;52.366;5.980;2023-01-23T03:12:16;103565.88;;;2.75;75.74
69574;BME280;62840;52.366;5.980;2023-01-23T03:14:41;103565.88;;;2.75;75.72
69574;BME280;62840;52.366;5.980;2023-01-23T03:17:07;103572.94;;;2.77;75.64
69574;BME280;62840;52.366;5.980;2023-01-23T03:19:36;103570.28;;;2.75;75.58
69574;BME280;62840;52.366;5.980;2023-01-23T03:22:02;103572.94;;;2.73;75.60
69574;BME280;62840;52.366;5.980;2023-01-23T03:24:27;103563.28;;;2.72;75.45
69574;BME280;62840;52.366;5.980;2023-01-23T03:26:53;103572.06;;;2.76;75.59
69574;BME280;62840;52.366;5.980;2023-01-23T03:29:21;103572.94;;;2.77;75.65
69574;BME280;62840;52.366;5.980;2023-01-23T03:31:48;103569.44;;;2.74;75.61
69574;BME280;62840;52.366;5.980;2023-01-23T03:34:14;103567.66;;;2.73;75.78
69574;BME280;62840;52.366;5.980;2023-01-23T03:36:42;103565.88;;;2.75;75.64
69574;BME280;62840;52.366;5.980;2023-01-23T03:39:08;103567.66;;;2.77;75.78
69574;BME280;62840;52.366;5.980;2023-01-23T03:41:34;103569.41;;;2.78;75.48
69574;BME280;62840;52.366;5.980;2023-01-23T03:44:00;103566.78;;;2.74;75.68
69574;BME280;62840;52.366;5.980;2023-01-23T03:46:26;103566.78;;;2.74;75.79
69574;BME280;62840;52.366;5.980;2023-01-23T03:48:51;103556.25;;;2.74;75.50
69574;BME280;62840;52.366;5.980;2023-01-23T03:51:17;103554.47;;;2.73;75.71
69574;BME280;62840;52.366;5.980;2023-01-23T03:53:46;103555.38;;;2.72;75.81
69574;BME280;62840;52.366;5.980;2023-01-23T03:56:11;103563.28;;;2.74;75.60
69574;BME280;62840;52.366;5.980;2023-01-23T03:58:37;103568.56;;;2.72;75.64
69574;BME280;62840;52.366;5.980;2023-01-23T04:01:05;103557.13;;;2.73;75.83
69574;BME280;62840;52.366;5.980;2023-01-23T04:03:31;103558.88;;;2.74;75.79
69574;BME280;62840;52.366;5.980;2023-01-23T04:05:57;103567.66;;;2.77;75.79
69574;BME280;62840;52.366;5.980;2023-01-23T04:08:23;103563.25;;;2.77;75.72
69574;BME280;62840;52.366;5.980;2023-01-23T04:10:59;103569.41;;;2.78;75.79
69574;BME280;62840;52.366;5.980;2023-01-23T04:13:26;103579.94;;;2.78;75.78
69574;BME280;62840;52.366;5.980;2023-01-23T04:15:51;103570.28;;;2.77;75.58
69574;BME280;62840;52.366;5.980;2023-01-23T04:18:17;103572.03;;;2.78;75.74
69574;BME280;62840;52.366;5.980;2023-01-23T04:20:43;103573.81;;;2.77;75.86
69574;BME280;62840;52.366;5.980;2023-01-23T04:23:08;103574.69;;;2.74;75.70
69574;BME280;62840;52.366;5.980;2023-01-23T04:25:34;103577.34;;;2.74;75.80
69574;BME280;62840;52.366;5.980;2023-01-23T04:28:03;103579.97;;;2.74;75.75
69574;BME280;62840;52.366;5.980;2023-01-23T04:30:28;103578.19;;;2.77;75.78
69574;BME280;62840;52.366;5.980;2023-01-23T04:32:54;103575.56;;;2.75;75.66
69574;BME280;62840;52.366;5.980;2023-01-23T04:35:20;103586.06;;;2.78;75.79
69574;BME280;62840;52.366;5.980;2023-01-23T04:37:46;103582.56;;;2.78;75.90
69574;BME280;62840;52.366;5.980;2023-01-23T04:40:12;103586.97;;;2.79;75.89
69574;BME280;62840;52.366;5.980;2023-01-23T04:42:37;103578.19;;;2.77;75.86
69574;BME280;62840;52.366;5.980;2023-01-23T04:45:07;103584.34;;;2.77;75.63
69574;BME280;62840;52.366;5.980;2023-01-23T04:47:34;103587.88;;;2.74;75.62
69574;BME280;62840;52.366;5.980;2023-01-23T04:50:00;103587.88;;;2.73;75.63
69574;BME280;62840;52.366;5.980;2023-01-23T04:52:26;103583.47;;;2.73;75.79
69574;BME280;62840;52.366;5.980;2023-01-23T04:54:51;103578.19;;;2.73;75.71
69574;BME280;62840;52.366;5.980;2023-01-23T04:57:17;103584.38;;;2.72;75.86
69574;BME280;62840;52.366;5.980;2023-01-23T04:59:43;103587.88;;;2.71;76.00
69574;BME280;62840;52.366;5.980;2023-01-23T05:02:11;103587.91;;;2.70;75.79
69574;BME280;62840;52.366;5.980;2023-01-23T05:04:37;103586.13;;;2.69;75.85
69574;BME280;62840;52.366;5.980;2023-01-23T05:07:03;103590.53;;;2.68;75.88
69574;BME280;62840;52.366;5.980;2023-01-23T05:09:29;103594.91;;;2.71;75.84
69574;BME280;62840;52.366;5.980;2023-01-23T05:11:54;103603.69;;;2.71;75.97
69574;BME280;62840;52.366;5.980;2023-01-23T05:14:21;103604.56;;;2.70;76.03
69574;BME280;62840;52.366;5.980;2023-01-23T05:16:46;103606.31;;;2.71;75.90
69574;BME280;62840;52.366;5.980;2023-01-23T05:19:15;103597.53;;;2.72;75.94
69574;BME280;62840;52.366;5.980;2023-01-23T05:21:41;103602.81;;;2.72;75.98
69574;BME280;62840;52.366;5.980;2023-01-23T05:24:06;103599.28;;;2.77;75.94
69574;BME280;62840;52.366;5.980;2023-01-23T05:26:32;103600.16;;;2.77;75.92
69574;BME280;62840;52.366;5.980;2023-01-23T05:28:58;103598.38;;;2.78;75.88
69574;BME280;62840;52.366;5.980;2023-01-23T05:31:24;103607.16;;;2.80;75.78
69574;BME280;62840;52.366;5.980;2023-01-23T05:33:49;103605.41;;;2.82;75.91
69574;BME280;62840;52.366;5.980;2023-01-23T05:36:18;103602.75;;;2.82;75.83
69574;BME280;62840;52.366;5.980;2023-01-23T05:38:44;103608.03;;;2.82;75.89
69574;BME280;62840;52.366;5.980;2023-01-23T05:41:09;103609.78;;;2.83;75.77
69574;BME280;62840;52.366;5.980;2023-01-23T05:43:35;103609.78;;;2.83;75.65
69574;BME280;62840;52.366;5.980;2023-01-23T05:46:01;103608.94;;;2.81;75.92
69574;BME280;62840;52.366;5.980;2023-01-23T05:48:27;103618.56;;;2.82;75.89
69574;BME280;62840;52.366;5.980;2023-01-23T05:50:53;103618.56;;;2.82;75.77
69574;BME280;62840;52.366;5.980;2023-01-23T05:53:22;103615.03;;;2.83;75.70
69574;BME280;62840;52.366;5.980;2023-01-23T05:55:48;103615.03;;;2.83;75.68
69574;BME280;62840;52.366;5.980;2023-01-23T05:58:13;103622.06;;;2.84;75.78
69574;BME280;62840;52.366;5.980;2023-01-23T06:00:39;103626.47;;;2.83;75.66
69574;BME280;62840;52.366;5.980;2023-01-23T06:03:05;103622.94;;;2.83;75.79
69574;BME280;62840;52.366;5.980;2023-01-23T06:05:31;103622.06;;;2.84;75.98
69574;BME280;62840;52.366;5.980;2023-01-23T06:07:57;103618.56;;;2.82;75.80
69574;BME280;62840;52.366;5.980;2023-01-23T06:10:25;103615.03;;;2.83;75.97
69574;BME280;62840;52.366;5.980;2023-01-23T06:12:51;103618.56;;;2.82;75.74
69574;BME280;62840;52.366;5.980;2023-01-23T06:15:17;103618.56;;;2.82;76.03
69574;BME280;62840;52.366;5.980;2023-01-23T06:17:42;103618.56;;;2.82;75.82
69574;BME280;62840;52.366;5.980;2023-01-23T06:20:10;103623.84;;;2.83;75.91
69574;BME280;62840;52.366;5.980;2023-01-23T06:22:36;103619.44;;;2.82;75.89
69574;BME280;62840;52.366;5.980;2023-01-23T06:25:02;103624.75;;;2.81;75.86
69574;BME280;62840;52.366;5.980;2023-01-23T06:27:31;103627.38;;;2.81;75.74
69574;BME280;62840;52.366;5.980;2023-01-23T06:29:56;103631.75;;;2.83;75.92
69574;BME280;62840;52.366;5.980;2023-01-23T06:32:22;103635.25;;;2.82;76.01
69574;BME280;62840;52.366;5.980;2023-01-23T06:34:48;103632.63;;;2.84;75.81
69574;BME280;62840;52.366;5.980;2023-01-23T06:37:14;103641.41;;;2.86;75.77
69574;BME280;62840;52.366;5.980;2023-01-23T06:39:40;103638.75;;;2.87;75.77
69574;BME280;62840;52.366;5.980;2023-01-23T06:42:06;103637.88;;;2.90;75.92
69574;BME280;62840;52.366;5.980;2023-01-23T06:44:34;103641.38;;;2.89;75.72
69574;BME280;62840;52.366;5.980;2023-01-23T06:47:00;103639.63;;;2.88;76.00
69574;BME280;62840;52.366;5.980;2023-01-23T06:49:26;103644.91;;;2.88;75.87
69574;BME280;62840;52.366;5.980;2023-01-23T06:51:52;103646.66;;;2.92;75.86
69574;BME280;62840;52.366;5.980;2023-01-23T06:54:17;103656.28;;;2.93;75.87
69574;BME280;62840;52.366;5.980;2023-01-23T06:56:43;103654.53;;;2.93;75.69
69574;BME280;62840;52.366;5.980;2023-01-23T06:59:09;103655.38;;;2.94;75.93
69574;BME280;62840;52.366;5.980;2023-01-23T07:01:38;103650.13;;;2.94;75.79
69574;BME280;62840;52.366;5.980;2023-01-23T07:04:04;103655.38;;;2.94;75.95
69574;BME280;62840;52.366;5.980;2023-01-23T07:06:30;103656.28;;;2.93;76.02
69574;BME280;62840;52.366;5.980;2023-01-23T07:08:55;103657.19;;;2.92;75.73
69574;BME280;62840;52.366;5.980;2023-01-23T07:11:23;103671.22;;;2.94;75.81
69574;BME280;62840;52.366;5.980;2023-01-23T07:13:49;103667.72;;;2.95;75.86
69574;BME280;62840;52.366;5.980;2023-01-23T07:16:15;103673.84;;;2.95;75.85
69574;BME280;62840;52.366;5.980;2023-01-23T07:18:43;103672.97;;;2.95;75.96
69574;BME280;62840;52.366;5.980;2023-01-23T07:21:09;103671.22;;;2.97;75.87
69574;BME280;62840;52.366;5.980;2023-01-23T07:23:35;103674.72;;;2.96;75.75
69574;BME280;62840;52.366;5.980;2023-01-23T07:26:03;103675.63;;;2.95;75.90
69574;BME280;62840;52.366;5.980;2023-01-23T07:28:30;103673.84;;;2.95;75.85
69574;BME280;62840;52.366;5.980;2023-01-23T07:30:56;103674.72;;;2.96;75.72
69574;BME280;62840;52.366;5.980;2023-01-23T07:33:22;103675.63;;;2.96;75.54
69574;BME280;62840;52.366;5.980;2023-01-23T07:35:50;103673.84;;;2.99;75.63
69574;BME280;62840;52.366;5.980;2023-01-23T07:38:16;103676.50;;;2.97;75.64
69574;BME280;62840;52.366;5.980;2023-01-23T07:40:42;103677.34;;;2.96;75.63
69574;BME280;62840;52.366;5.980;2023-01-23T07:43:07;103678.25;;;2.95;75.87
69574;BME280;62840;52.366;5.980;2023-01-23T07:45:33;103681.75;;;2.97;75.73
69574;BME280;62840;52.366;5.980;2023-01-23T07:47:59;103681.75;;;2.97;75.92
69574;BME280;62840;52.366;5.980;2023-01-23T07:50:25;103687.03;;;2.97;75.83
69574;BME280;62840;52.366;5.980;2023-01-23T07:52:53;103697.56;;;2.97;75.85
69574;BME280;62840;52.366;5.980;2023-01-23T07:55:19;103694.03;;;2.98;75.86
69574;BME280;62840;52.366;5.980;2023-01-23T07:57:45;103710.72;;;3.00;75.78
69574;BME280;62840;52.366;5.980;2023-01-23T08:00:11;103701.97;;;3.01;75.75
69574;BME280;62840;52.366;5.980;2023-01-23T08:02:37;103703.69;;;3.01;75.88
69574;BME280;62840;52.366;5.980;2023-01-23T08:05:04;103694.91;;;3.02;75.76
69574;BME280;62840;52.366;5.980;2023-01-23T08:07:31;103704.59;;;3.01;75.71
69574;BME280;62840;52.366;5.980;2023-01-23T08:09:59;103702.81;;;3.03;75.85
69574;BME280;62840;52.366;5.980;2023-01-23T08:12:25;103697.56;;;3.03;75.96
69574;BME280;62840;52.366;5.980;2023-01-23T08:14:51;103692.28;;;3.03;75.86
69574;BME280;62840;52.366;5.980;2023-01-23T08:17:16;103702.81;;;3.06;75.83
69574;BME280;62840;52.366;5.980;2023-01-23T08:19:42;103709.81;;;3.07;75.77
69574;BME280;62840;52.366;5.980;2023-01-23T08:22:08;103708.94;;;3.07;75.87
69574;BME280;62840;52.366;5.980;2023-01-23T08:24:34;103709.81;;;3.07;75.77
69574;BME280;62840;52.366;5.980;2023-01-23T08:27:02;103708.94;;;3.08;75.74
69574;BME280;62840;52.366;5.980;2023-01-23T08:29:29;103713.31;;;3.09;75.71
69574;BME280;62840;52.366;5.980;2023-01-23T08:31:55;103722.09;;;3.11;75.99
69574;BME280;62840;52.366;5.980;2023-01-23T08:34:21;103729.16;;;3.12;75.90
69574;BME280;62840;52.366;5.980;2023-01-23T08:36:47;103722.97;;;3.15;75.72
69574;BME280;62840;52.366;5.980;2023-01-23T08:39:13;103729.13;;;3.15;75.77
69574;BME280;62840;52.366;5.980;2023-01-23T08:41:40;103736.13;;;3.18;75.69
69574;BME280;62840;52.366;5.980;2023-01-23T08:44:09;103736.13;;;3.20;75.86
69574;BME280;62840;52.366;5.980;2023-01-23T08:46:35;103730.88;;;3.20;75.98
69574;BME280;62840;52.366;5.980;2023-01-23T08:49:00;103718.53;;;3.20;75.76
69574;BME280;62840;52.366;5.980;2023-01-23T08:51:26;103720.28;;;3.23;75.84
69574;BME280;62840;52.366;5.980;2023-01-23T08:53:52;103709.75;;;3.24;75.67
69574;BME280;62840;52.366;5.980;2023-01-23T08:56:20;103710.59;;;3.25;75.93
69574;BME280;62840;52.366;5.980;2023-01-23T08:58:47;103729.03;;;3.28;75.69
69574;BME280;62840;52.366;5.980;2023-01-23T09:01:18;103725.53;;;3.30;75.84
69574;BME280;62840;52.366;5.980;2023-01-23T09:03:46;103736.97;;;3.32;75.71
69574;BME280;62840;52.366;5.980;2023-01-23T09:06:13;103727.28;;;3.33;75.66
69574;BME280;62840;52.366;5.980;2023-01-23T09:08:41;103730.78;;;3.35;75.66
69574;BME280;62840;52.366;5.980;2023-01-23T09:11:09;103741.31;;;3.38;75.64
69574;BME280;62840;52.366;5.980;2023-01-23T09:13:36;103736.03;;;3.38;75.59
69574;BME280;62840;52.366;5.980;2023-01-23T09:16:03;103736.91;;;3.40;75.96
69574;BME280;62840;52.366;5.980;2023-01-23T09:18:33;103737.78;;;3.42;75.70
69574;BME280;62840;52.366;5.980;2023-01-23T09:20:59;103737.78;;;3.42;75.60
69574;BME280;62840;52.366;5.980;2023-01-23T09:23:24;103741.25;;;3.47;75.80
69574;BME280;62840;52.366;5.980;2023-01-23T09:25:50;103750.03;;;3.49;75.63
69574;BME280;62840;52.366;5.980;2023-01-23T09:28:16;103746.53;;;3.50;75.84
69574;BME280;62840;52.366;5.980;2023-01-23T09:30:42;103752.63;;;3.52;75.84
69574;BME280;62840;52.366;5.980;2023-01-23T09:33:08;103740.31;;;3.54;75.71
69574;BME280;62840;52.366;5.980;2023-01-23T09:35:36;103744.69;;;3.58;75.72
69574;BME280;62840;52.366;5.980;2023-01-23T09:38:03;103737.66;;;3.61;75.63
69574;BME280;62840;52.366;5.980;2023-01-23T09:40:30;103744.69;;;3.62;75.81
69574;BME280;62840;52.366;5.980;2023-01-23T09:43:02;103743.78;;;3.64;75.54
69574;BME280;62840;52.366;5.980;2023-01-23T09:45:38;103741.13;;;3.66;75.71
69574;BME280;62840;52.366;5.980;2023-01-23T09:48:16;103744.63;;;3.68;75.68
69574;BME280;62840;52.366;5.980;2023-01-23T09:50:54;103752.56;;;3.69;75.62
69574;BME280;62840;52.366;5.980;2023-01-23T09:53:28;103756.94;;;3.72;75.57
69574;BME280;62840;52.366;5.980;2023-01-23T09:56:03;103751.66;;;3.72;75.57
69574;BME280;62840;52.366;5.980;2023-01-23T09:58:40;103754.28;;;3.72;75.60
69574;BME280;62840;52.366;5.980;2023-01-23T10:01:12;103758.69;;;3.73;75.45
69574;BME280;62840;52.366;5.980;2023-01-23T10:03:37;103758.66;;;3.76;75.48
69574;BME280;62840;52.366;5.980;2023-01-23T10:06:17;103762.13;;;3.79;75.37
69574;BME280;62840;52.366;5.980;2023-01-23T10:08:58;103760.41;;;3.80;75.30
69574;BME280;62840;52.366;5.980;2023-01-23T10:11:43;103754.22;;;3.81;75.50
69574;BME280;62840;52.366;5.980;2023-01-23T10:14:36;103762.13;;;3.81;75.44
69574;BME280;62840;52.366;5.980;2023-01-23T10:17:21;103765.66;;;3.83;75.49
69574;BME280;62840;52.366;5.980;2023-01-23T10:20:08;103758.59;;;3.85;75.54
69574;BME280;62840;52.366;5.980;2023-01-23T10:23:01;103765.63;;;3.89;75.39
69574;BME280;62840;52.366;5.980;2023-01-23T10:25:37;103762.06;;;3.90;75.41
69574;BME280;62840;52.366;5.980;2023-01-23T10:28:16;103762.94;;;3.95;75.40
69574;BME280;62840;52.366;5.980;2023-01-23T10:30:53;103758.53;;;3.94;75.28
69574;BME280;62840;52.366;5.980;2023-01-23T10:33:31;103760.28;;;3.95;75.16
69574;BME280;62840;52.366;5.980;2023-01-23T10:36:06;103754.97;;;3.98;74.99
69574;BME280;62840;52.366;5.980;2023-01-23T10:38:49;103741.78;;;4.00;75.16
69574;BME280;62840;52.366;5.980;2023-01-23T10:41:23;103747.06;;;4.00;75.29
69574;BME280;62840;52.366;5.980;2023-01-23T10:43:51;103740.88;;;4.03;75.09
69574;BME280;62840;52.366;5.980;2023-01-23T10:46:21;103744.38;;;4.05;75.23
69574;BME280;62840;52.366;5.980;2023-01-23T10:48:53;103751.34;;;4.09;75.26
69574;BME280;62840;52.366;5.980;2023-01-23T10:51:25;103754.84;;;4.11;75.10
69574;BME280;62840;52.366;5.980;2023-01-23T10:54:07;103758.38;;;4.13;75.02
69574;BME280;62840;52.366;5.980;2023-01-23T10:56:45;103754.84;;;4.14;75.00
69574;BME280;62840;52.366;5.980;2023-01-23T10:59:20;103750.41;;;4.17;75.01
69574;BME280;62840;52.366;5.980;2023-01-23T11:02:00;103744.22;;;4.21;75.02
69574;BME280;62840;52.366;5.980;2023-01-23T11:04:44;103749.47;;;4.23;75.05
69574;BME280;62840;52.366;5.980;2023-01-23T11:07:12;103752.09;;;4.28;74.57
69574;BME280;62840;52.366;5.980;2023-01-23T11:09:52;103752.09;;;4.28;74.50
69574;BME280;62840;52.366;5.980;2023-01-23T11:12:21;103753.81;;;4.29;74.58
69574;BME280;62840;52.366;5.980;2023-01-23T11:14:49;103753.81;;;4.32;74.55
69574;BME280;62840;52.366;5.980;2023-01-23T11:17:22;103755.56;;;4.33;74.73
69574;BME280;62840;52.366;5.980;2023-01-23T11:19:52;103752.00;;;4.35;74.63
69574;BME280;62840;52.366;5.980;2023-01-23T11:22:36;103758.13;;;4.40;74.60
69574;BME280;62840;52.366;5.980;2023-01-23T11:25:26;103758.09;;;4.43;74.67
69574;BME280;62840;52.366;5.980;2023-01-23T11:27:58;103754.59;;;4.41;74.47
69574;BME280;62840;52.366;5.980;2023-01-23T11:30:38;103759.88;;;4.41;74.58
69574;BME280;62840;52.366;5.980;2023-01-23T11:33:13;103765.13;;;4.45;74.59
69574;BME280;62840;52.366;5.980;2023-01-23T11:35:54;103765.13;;;4.45;74.45
69574;BME280;62840;52.366;5.980;2023-01-23T11:38:34;103760.75;;;4.42;74.36
69574;BME280;62840;52.366;5.980;2023-01-23T11:41:10;103758.97;;;4.42;74.39
69574;BME280;62840;52.366;5.980;2023-01-23T11:43:38;103752.81;;;4.43;74.09
69574;BME280;62840;52.366;5.980;2023-01-23T11:49:40;103752.81;;;4.43;74.34
69574;BME280;62840;52.366;5.980;2023-01-23T11:52:30;103748.38;;;4.46;74.36
69574;BME280;62840;52.366;5.980;2023-01-23T11:55:25;103758.91;;;4.49;74.08
69574;BME280;62840;52.366;5.980;2023-01-23T11:58:30;103760.69;;;4.50;74.28
69574;BME280;62840;52.366;5.980;2023-01-23T12:01:11;103759.78;;;4.52;74.27
69574;BME280;62840;52.366;5.980;2023-01-23T12:04:12;103751.78;;;4.57;74.48
69574;BME280;62840;52.366;5.980;2023-01-23T12:07:22;103757.91;;;4.62;74.01
69574;BME280;62840;52.366;5.980;2023-01-23T12:10:01;103761.44;;;4.61;74.22
69574;BME280;62840;52.366;5.980;2023-01-23T12:12:50;103750.88;;;4.61;73.90
69574;BME280;62840;52.366;5.980;2023-01-23T12:15:41;103754.41;;;4.60;73.84
69574;BME280;62840;52.366;5.980;2023-01-23T12:18:22;103753.53;;;4.58;73.75
69574;BME280;62840;52.366;5.980;2023-01-23T12:21:02;103758.81;;;4.58;73.89
69574;BME280;62840;52.366;5.980;2023-01-23T12:23:54;103745.59;;;4.59;73.95
69574;BME280;62840;52.366;5.980;2023-01-23T12:26:31;103749.09;;;4.60;73.74
69574;BME280;62840;52.366;5.980;2023-01-23T12:29:17;103748.25;;;4.59;73.95
69574;BME280;62840;52.366;5.980;2023-01-23T12:32:14;103747.31;;;4.62;74.08
69574;BME280;62840;52.366;5.980;2023-01-23T12:35:05;103749.09;;;4.63;73.81
69574;BME280;62840;52.366;5.980;2023-01-23T12:38:01;103746.41;;;4.64;73.73
69574;BME280;62840;52.366;5.980;2023-01-23T12:40:39;103747.28;;;4.68;74.01
69574;BME280;62840;52.366;5.980;2023-01-23T12:43:13;103753.41;;;4.70;73.79
69574;BME280;62840;52.366;5.980;2023-01-23T12:45:46;103753.38;;;4.75;73.86
69574;BME280;62840;52.366;5.980;2023-01-23T12:48:24;103753.31;;;4.76;74.13
69574;BME280;62840;52.366;5.980;2023-01-23T12:50:56;103752.47;;;4.76;73.83
69574;BME280;62840;52.366;5.980;2023-01-23T12:53:32;103757.75;;;4.77;73.73
69574;BME280;62840;52.366;5.980;2023-01-23T12:56:05;103754.22;;;4.77;73.75
69574;BME280;62840;52.366;5.980;2023-01-23T12:58:39;103755.97;;;4.79;73.70
69574;BME280;62840;52.366;5.980;2023-01-23T13:04:34;103763.84;;;4.84;73.71
69574;BME280;62840;52.366;5.980;2023-01-23T13:07:21;103756.78;;;4.83;73.52
69574;BME280;62840;52.366;5.980;2023-01-23T13:10:12;103761.19;;;4.82;73.51
69574;BME280;62840;52.366;5.980;2023-01-23T13:12:48;103757.69;;;4.83;73.44
69574;BME280;62840;52.366;5.980;2023-01-23T13:15:22;103752.38;;;4.83;73.34
69574;BME280;62840;52.366;5.980;2023-01-23T13:17:58;103757.69;;;4.83;73.20
69574;BME280;62840;52.366;5.980;2023-01-23T13:20:30;103745.34;;;4.82;73.56
69574;BME280;62840;52.366;5.980;2023-01-23T13:23:17;103747.97;;;4.84;73.36